sensor_id;sensor_type;location;lat;lon;timestamp;pressure;altitude;pressure_sealevel;temperature;humidity
38780;BME280;29273;49.962;9.768;2024-03-25T00:02:11;98821.34;;;9.58;55.88
38780;BME280;29273;49.962;9.768;2024-03-25T00:04:37;98818.72;;;9.58;55.53
38780;BME280;29273;49.962;9.768;2024-03-25T00:07:02;98822.16;;;9.58;56.00
38780;BME280;29273;49.962;9.768;2024-03-25T00:09:28;98816.06;;;9.58;55.63
38780;BME280;29273;49.962;9.768;2024-03-25T00:11:53;98829.28;;;9.58;55.66
38780;BME280;29273;49.962;9.768;2024-03-25T00:14:20;98832.50;;;9.60;56.85
38780;BME280;29273;49.962;9.768;2024-03-25T00:16:46;98834.34;;;9.59;56.57
38780;BME280;29273;49.962;9.768;2024-03-25T00:19:12;98825.59;;;9.59;56.20
38780;BME280;29273;49.962;9.768;2024-03-25T00:21:37;98831.72;;;9.59;56.88
38780;BME280;29273;49.962;9.768;2024-03-25T00:24:03;98834.13;;;9.61;56.60
38780;BME280;29273;49.962;9.768;2024-03-25T00:26:28;98829.66;;;9.61;56.08
38780;BME280;29273;49.962;9.768;2024-03-25T00:28:54;98827.81;;;9.62;56.61
38780;BME280;29273;49.962;9.768;2024-03-25T00:31:19;98830.22;;;9.63;56.25
38780;BME280;29273;49.962;9.768;2024-03-25T00:33:45;98833.47;;;9.66;55.99
38780;BME280;29273;49.962;9.768;2024-03-25T00:36:10;98826.34;;;9.66;56.21
38780;BME280;29273;49.962;9.768;2024-03-25T00:38:36;98824.50;;;9.67;56.25
38780;BME280;29273;49.962;9.768;2024-03-25T00:41:01;98833.25;;;9.67;56.01
38780;BME280;29273;49.962;9.768;2024-03-25T00:43:27;98824.50;;;9.67;56.06
38780;BME280;29273;49.962;9.768;2024-03-25T00:45:53;98831.44;;;9.68;56.02
38780;BME280;29273;49.962;9.768;2024-03-25T00:48:18;98830.81;;;9.66;56.12
38780;BME280;29273;49.962;9.768;2024-03-25T00:50:44;98838.97;;;9.64;55.29
38780;BME280;29273;49.962;9.768;2024-03-25T00:53:09;98824.16;;;9.63;55.39
38780;BME280;29273;49.962;9.768;2024-03-25T00:55:35;98822.31;;;9.63;55.55
38780;BME280;29273;49.962;9.768;2024-03-25T00:58:03;98821.06;;;9.66;56.71
38780;BME280;29273;49.962;9.768;2024-03-25T01:00:29;98814.81;;;9.60;54.73
38780;BME280;29273;49.962;9.768;2024-03-25T01:02:54;98828.44;;;9.57;55.21
38780;BME280;29273;49.962;9.768;2024-03-25T01:05:20;98816.94;;;9.52;54.37
38780;BME280;29273;49.962;9.768;2024-03-25T01:07:46;98822.66;;;9.49;54.55
38780;BME280;29273;49.962;9.768;2024-03-25T01:10:11;98824.94;;;9.45;54.18
38780;BME280;29273;49.962;9.768;2024-03-25T01:12:37;98826.63;;;9.39;53.79
38780;BME280;29273;49.962;9.768;2024-03-25T01:15:02;98820.13;;;9.35;53.27
38780;BME280;29273;49.962;9.768;2024-03-25T01:17:28;98819.34;;;9.35;54.58
38780;BME280;29273;49.962;9.768;2024-03-25T01:19:53;98819.78;;;9.32;54.77
38780;BME280;29273;49.962;9.768;2024-03-25T01:22:19;98817.56;;;9.29;54.75
38780;BME280;29273;49.962;9.768;2024-03-25T01:24:44;98814.53;;;9.25;54.03
38780;BME280;29273;49.962;9.768;2024-03-25T01:27:10;98826.13;;;9.24;54.67
38780;BME280;29273;49.962;9.768;2024-03-25T01:29:36;98829.66;;;9.18;53.48
38780;BME280;29273;49.962;9.768;2024-03-25T01:32:02;98833.09;;;9.18;54.01
38780;BME280;29273;49.962;9.768;2024-03-25T01:34:28;98840.22;;;9.18;54.65
38780;BME280;29273;49.962;9.768;2024-03-25T01:36:53;98839.38;;;9.17;55.43
38780;BME280;29273;49.962;9.768;2024-03-25T01:39:19;98843.50;;;9.13;54.31
38780;BME280;29273;49.962;9.768;2024-03-25T01:41:44;98829.25;;;9.14;55.04
38780;BME280;29273;49.962;9.768;2024-03-25T01:44:10;98832.72;;;9.15;54.69
38780;BME280;29273;49.962;9.768;2024-03-25T01:46:36;98823.16;;;9.14;55.43
38780;BME280;29273;49.962;9.768;2024-03-25T01:49:03;98829.03;;;9.16;55.87
38780;BME280;29273;49.962;9.768;2024-03-25T01:51:28;98823.16;;;9.14;55.27
38780;BME280;29273;49.962;9.768;2024-03-25T01:53:54;98827.66;;;9.13;55.51
38780;BME280;29273;49.962;9.768;2024-03-25T01:56:21;98830.28;;;9.13;55.53
38780;BME280;29273;49.962;9.768;2024-03-25T01:58:48;98829.50;;;9.13;55.54
38780;BME280;29273;49.962;9.768;2024-03-25T02:01:14;98838.66;;;9.10;55.04
38780;BME280;29273;49.962;9.768;2024-03-25T02:03:44;98847.38;;;9.11;55.16
38780;BME280;29273;49.962;9.768;2024-03-25T02:06:13;98853.28;;;9.13;55.96
38780;BME280;29273;49.962;9.768;2024-03-25T02:08:40;98847.78;;;9.07;54.73
38780;BME280;29273;49.962;9.768;2024-03-25T02:11:06;98849.84;;;9.05;55.81
38780;BME280;29273;49.962;9.768;2024-03-25T02:13:32;98844.56;;;9.05;55.95
38780;BME280;29273;49.962;9.768;2024-03-25T02:15:58;98858.81;;;9.04;56.19
38780;BME280;29273;49.962;9.768;2024-03-25T02:18:23;98869.59;;;9.03;56.45
38780;BME280;29273;49.962;9.768;2024-03-25T02:20:49;98864.72;;;9.00;56.03
38780;BME280;29273;49.962;9.768;2024-03-25T02:23:14;98872.66;;;9.00;56.29
38780;BME280;29273;49.962;9.768;2024-03-25T02:25:42;98880.38;;;9.01;57.07
38780;BME280;29273;49.962;9.768;2024-03-25T02:28:08;98878.94;;;8.99;56.94
38780;BME280;29273;49.962;9.768;2024-03-25T02:30:33;98877.34;;;8.98;57.41
38780;BME280;29273;49.962;9.768;2024-03-25T02:32:59;98889.13;;;8.95;57.03
38780;BME280;29273;49.962;9.768;2024-03-25T02:35:26;98889.94;;;8.96;56.64
38780;BME280;29273;49.962;9.768;2024-03-25T02:37:52;98886.72;;;8.94;56.76
38780;BME280;29273;49.962;9.768;2024-03-25T02:40:18;98874.75;;;8.91;57.12
38780;BME280;29273;49.962;9.768;2024-03-25T02:42:44;98872.53;;;8.88;57.14
38780;BME280;29273;49.962;9.768;2024-03-25T02:45:10;98869.31;;;8.86;57.43
38780;BME280;29273;49.962;9.768;2024-03-25T02:47:36;98876.59;;;8.84;57.34
38780;BME280;29273;49.962;9.768;2024-03-25T02:50:01;98868.91;;;8.82;57.82
38780;BME280;29273;49.962;9.768;2024-03-25T02:52:26;98867.09;;;8.83;58.02
38780;BME280;29273;49.962;9.768;2024-03-25T02:54:52;98870.75;;;8.82;58.05
38780;BME280;29273;49.962;9.768;2024-03-25T02:57:19;98873.38;;;8.82;57.93
38780;BME280;29273;49.962;9.768;2024-03-25T02:59:45;98877.03;;;8.81;58.02
38780;BME280;29273;49.962;9.768;2024-03-25T03:02:10;98872.59;;;8.81;58.02
38780;BME280;29273;49.962;9.768;2024-03-25T03:04:35;98870.75;;;8.82;57.88
38780;BME280;29273;49.962;9.768;2024-03-25T03:07:01;98881.31;;;8.82;57.65
38780;BME280;29273;49.962;9.768;2024-03-25T03:09:26;98869.94;;;8.81;57.59
38780;BME280;29273;49.962;9.768;2024-03-25T03:11:52;98870.75;;;8.82;57.90
38780;BME280;29273;49.962;9.768;2024-03-25T03:14:17;98875.22;;;8.81;57.77
38780;BME280;29273;49.962;9.768;2024-03-25T03:16:43;98870.94;;;8.80;57.63
38780;BME280;29273;49.962;9.768;2024-03-25T03:19:08;98872.00;;;8.79;57.14
38780;BME280;29273;49.962;9.768;2024-03-25T03:21:34;98869.34;;;8.79;57.27
38780;BME280;29273;49.962;9.768;2024-03-25T03:23:59;98882.97;;;8.76;56.47
38780;BME280;29273;49.962;9.768;2024-03-25T03:26:25;98882.75;;;8.78;57.10
38780;BME280;29273;49.962;9.768;2024-03-25T03:28:56;98876.22;;;8.80;56.90
38780;BME280;29273;49.962;9.768;2024-03-25T03:31:22;98869.56;;;8.78;56.64
38780;BME280;29273;49.962;9.768;2024-03-25T03:33:48;98877.47;;;8.78;56.82
38780;BME280;29273;49.962;9.768;2024-03-25T03:36:15;98879.66;;;8.81;57.27
38780;BME280;29273;49.962;9.768;2024-03-25T03:38:42;98885.19;;;8.79;57.24
38780;BME280;29273;49.962;9.768;2024-03-25T03:41:07;98887.84;;;8.79;57.06
38780;BME280;29273;49.962;9.768;2024-03-25T03:43:33;98889.44;;;8.80;56.61
38780;BME280;29273;49.962;9.768;2024-03-25T03:45:58;98889.22;;;8.82;57.09
38780;BME280;29273;49.962;9.768;2024-03-25T03:48:24;98895.09;;;8.84;56.90
38780;BME280;29273;49.962;9.768;2024-03-25T03:50:49;98898.78;;;8.83;56.32
38780;BME280;29273;49.962;9.768;2024-03-25T03:53:15;98902.22;;;8.83;56.14
38780;BME280;29273;49.962;9.768;2024-03-25T03:55:40;98902.00;;;8.85;56.32
38780;BME280;29273;49.962;9.768;2024-03-25T03:58:05;98913.38;;;8.85;56.50
38780;BME280;29273;49.962;9.768;2024-03-25T04:00:34;98916.78;;;8.93;57.48
38780;BME280;29273;49.962;9.768;2024-03-25T04:03:01;98917.00;;;8.91;56.53
38780;BME280;29273;49.962;9.768;2024-03-25T04:05:30;98919.81;;;8.96;56.99
38780;BME280;29273;49.962;9.768;2024-03-25T04:07:56;98920.22;;;8.93;56.43
38780;BME280;29273;49.962;9.768;2024-03-25T04:10:23;98916.34;;;8.96;57.07
38780;BME280;29273;49.962;9.768;2024-03-25T04:12:48;98911.06;;;8.96;57.10
38780;BME280;29273;49.962;9.768;2024-03-25T04:15:14;98923.25;;;8.97;56.49
38780;BME280;29273;49.962;9.768;2024-03-25T04:17:46;98914.50;;;9.03;56.65
38780;BME280;29273;49.962;9.768;2024-03-25T04:20:12;98915.72;;;9.00;56.21
38780;BME280;29273;49.962;9.768;2024-03-25T04:22:41;98902.88;;;9.04;57.01
38780;BME280;29273;49.962;9.768;2024-03-25T04:25:10;98903.56;;;8.99;55.35
38780;BME280;29273;49.962;9.768;2024-03-25T04:27:42;98900.66;;;9.01;55.79
38780;BME280;29273;49.962;9.768;2024-03-25T04:30:10;98901.28;;;9.03;55.94
38780;BME280;29273;49.962;9.768;2024-03-25T04:32:37;98901.50;;;9.01;55.89
38780;BME280;29273;49.962;9.768;2024-03-25T04:35:03;98909.41;;;9.01;55.76
38780;BME280;29273;49.962;9.768;2024-03-25T04:37:29;98913.28;;;8.99;55.35
38780;BME280;29273;49.962;9.768;2024-03-25T04:39:55;98911.47;;;8.99;55.50
38780;BME280;29273;49.962;9.768;2024-03-25T04:42:21;98915.13;;;8.98;54.90
38780;BME280;29273;49.962;9.768;2024-03-25T04:44:47;98915.91;;;8.99;55.32
38780;BME280;29273;49.962;9.768;2024-03-25T04:47:13;98912.47;;;8.98;55.25
38780;BME280;29273;49.962;9.768;2024-03-25T04:49:39;98926.69;;;8.97;55.44
38780;BME280;29273;49.962;9.768;2024-03-25T04:52:05;98926.47;;;8.99;55.96
38780;BME280;29273;49.962;9.768;2024-03-25T04:54:31;98931.19;;;8.97;55.17
38780;BME280;29273;49.962;9.768;2024-03-25T04:56:56;98934.63;;;8.97;55.58
38780;BME280;29273;49.962;9.768;2024-03-25T04:59:22;98934.63;;;8.97;55.79
38780;BME280;29273;49.962;9.768;2024-03-25T05:01:47;98934.63;;;8.97;55.36
38780;BME280;29273;49.962;9.768;2024-03-25T05:04:13;98933.59;;;8.98;55.70
38780;BME280;29273;49.962;9.768;2024-03-25T05:06:38;98938.69;;;9.00;55.61
38780;BME280;29273;49.962;9.768;2024-03-25T05:09:04;98951.09;;;8.99;55.99
38780;BME280;29273;49.962;9.768;2024-03-25T05:11:31;98951.69;;;9.01;56.13
38780;BME280;29273;49.962;9.768;2024-03-25T05:13:57;98945.56;;;9.01;55.59
38780;BME280;29273;49.962;9.768;2024-03-25T05:16:22;98949.84;;;9.02;55.51
38780;BME280;29273;49.962;9.768;2024-03-25T05:18:48;98945.34;;;9.02;54.70
38780;BME280;29273;49.962;9.768;2024-03-25T05:21:13;98943.75;;;9.01;54.73
38780;BME280;29273;49.962;9.768;2024-03-25T05:23:39;98939.47;;;9.00;54.13
38780;BME280;29273;49.962;9.768;2024-03-25T05:26:05;98948.81;;;9.03;54.46
38780;BME280;29273;49.962;9.768;2024-03-25T05:28:30;98943.75;;;9.01;54.61
38780;BME280;29273;49.962;9.768;2024-03-25T05:30:56;98948.00;;;9.02;55.47
38780;BME280;29273;49.962;9.768;2024-03-25T05:33:21;98946.41;;;9.01;55.31
38780;BME280;29273;49.962;9.768;2024-03-25T05:35:47;98942.91;;;9.01;54.62
38780;BME280;29273;49.962;9.768;2024-03-25T05:38:12;98937.63;;;9.01;54.92
38780;BME280;29273;49.962;9.768;2024-03-25T05:40:38;98938.69;;;9.00;55.37
38780;BME280;29273;49.962;9.768;2024-03-25T05:43:03;98934.41;;;8.99;55.16
38780;BME280;29273;49.962;9.768;2024-03-25T05:45:29;98943.38;;;8.98;55.36
38780;BME280;29273;49.962;9.768;2024-03-25T05:47:55;98939.31;;;8.95;55.56
38780;BME280;29273;49.962;9.768;2024-03-25T05:50:20;98950.09;;;8.94;55.54
38780;BME280;29273;49.962;9.768;2024-03-25T05:52:46;98955.78;;;8.91;55.47
38780;BME280;29273;49.962;9.768;2024-03-25T05:55:11;98951.53;;;8.89;55.37
38780;BME280;29273;49.962;9.768;2024-03-25T05:57:37;98952.97;;;8.85;54.99
38780;BME280;29273;49.962;9.768;2024-03-25T06:00:03;98962.72;;;8.85;55.21
38780;BME280;29273;49.962;9.768;2024-03-25T06:02:37;98963.94;;;8.82;55.43
38780;BME280;29273;49.962;9.768;2024-03-25T06:05:04;98960.28;;;8.83;55.18
38780;BME280;29273;49.962;9.768;2024-03-25T06:07:30;98960.91;;;8.79;53.49
38780;BME280;29273;49.962;9.768;2024-03-25T06:09:55;98955.63;;;8.79;54.27
38780;BME280;29273;49.962;9.768;2024-03-25T06:12:21;98962.56;;;8.80;55.26
38780;BME280;29273;49.962;9.768;2024-03-25T06:14:46;98958.28;;;8.79;54.51
38780;BME280;29273;49.962;9.768;2024-03-25T06:17:12;98971.28;;;8.80;55.02
38780;BME280;29273;49.962;9.768;2024-03-25T06:19:37;98960.50;;;8.82;54.92
38780;BME280;29273;49.962;9.768;2024-03-25T06:22:03;98962.13;;;8.83;54.47
38780;BME280;29273;49.962;9.768;2024-03-25T06:24:28;98961.31;;;8.82;54.35
38780;BME280;29273;49.962;9.768;2024-03-25T06:26:54;98958.47;;;8.84;55.18
38780;BME280;29273;49.962;9.768;2024-03-25T06:29:19;98966.38;;;8.84;54.68
38780;BME280;29273;49.962;9.768;2024-03-25T06:31:45;98964.56;;;8.84;54.75
38780;BME280;29273;49.962;9.768;2024-03-25T06:34:29;98973.88;;;8.87;55.35
38780;BME280;29273;49.962;9.768;2024-03-25T06:36:54;98965.97;;;8.87;55.28
38780;BME280;29273;49.962;9.768;2024-03-25T06:39:19;98967.19;;;8.91;55.81
38780;BME280;29273;49.962;9.768;2024-03-25T06:41:45;98973.84;;;8.94;55.37
38780;BME280;29273;49.962;9.768;2024-03-25T06:44:10;98975.88;;;8.98;55.75
38780;BME280;29273;49.962;9.768;2024-03-25T06:46:36;98977.03;;;9.02;55.69
38780;BME280;29273;49.962;9.768;2024-03-25T06:49:01;98976.25;;;9.02;53.79
38780;BME280;29273;49.962;9.768;2024-03-25T06:51:27;98974.81;;;9.06;54.83
38780;BME280;29273;49.962;9.768;2024-03-25T06:53:52;98989.63;;;9.07;54.34
38780;BME280;29273;49.962;9.768;2024-03-25T06:56:18;98988.41;;;9.10;54.60
38780;BME280;29273;49.962;9.768;2024-03-25T06:58:43;98992.06;;;9.08;55.09
38780;BME280;29273;49.962;9.768;2024-03-25T07:01:10;98984.94;;;9.09;54.73
38780;BME280;29273;49.962;9.768;2024-03-25T07:03:38;98990.41;;;9.07;54.44
38780;BME280;29273;49.962;9.768;2024-03-25T07:06:04;98993.06;;;9.07;54.27
38780;BME280;29273;49.962;9.768;2024-03-25T07:08:31;98993.91;;;9.08;55.23
38780;BME280;29273;49.962;9.768;2024-03-25T07:10:57;98993.06;;;9.07;55.55
38780;BME280;29273;49.962;9.768;2024-03-25T07:13:23;98997.34;;;9.08;55.02
38780;BME280;29273;49.962;9.768;2024-03-25T07:15:49;98998.13;;;9.09;54.97
38780;BME280;29273;49.962;9.768;2024-03-25T07:18:15;99000.56;;;9.11;55.25
38780;BME280;29273;49.962;9.768;2024-03-25T07:20:42;98999.13;;;9.15;55.75
38780;BME280;29273;49.962;9.768;2024-03-25T07:23:08;98999.31;;;9.20;55.78
38780;BME280;29273;49.962;9.768;2024-03-25T07:25:34;99003.34;;;9.22;54.59
38780;BME280;29273;49.962;9.768;2024-03-25T07:28:00;99002.94;;;9.25;54.03
38780;BME280;29273;49.962;9.768;2024-03-25T07:30:25;99008.38;;;9.31;54.46
38780;BME280;29273;49.962;9.768;2024-03-25T07:32:54;99013.25;;;9.34;53.00
38780;BME280;29273;49.962;9.768;2024-03-25T07:35:20;99018.91;;;9.37;53.83
38780;BME280;29273;49.962;9.768;2024-03-25T07:37:45;99021.13;;;9.40;54.51
38780;BME280;29273;49.962;9.768;2024-03-25T07:40:11;99023.13;;;9.45;54.17
38780;BME280;29273;49.962;9.768;2024-03-25T07:42:39;99017.44;;;9.48;53.59
38780;BME280;29273;49.962;9.768;2024-03-25T07:45:05;99021.03;;;9.54;54.65
38780;BME280;29273;49.962;9.768;2024-03-25T07:47:32;99022.84;;;9.60;54.57
38780;BME280;29273;49.962;9.768;2024-03-25T07:49:58;99019.34;;;9.66;55.00
38780;BME280;29273;49.962;9.768;2024-03-25T07:52:27;99021.94;;;9.73;55.55
38780;BME280;29273;49.962;9.768;2024-03-25T07:54:53;99029.81;;;9.79;55.03
38780;BME280;29273;49.962;9.768;2024-03-25T07:57:19;99030.56;;;9.87;55.05
38780;BME280;29273;49.962;9.768;2024-03-25T07:59:45;99035.59;;;9.95;55.31
38780;BME280;29273;49.962;9.768;2024-03-25T08:02:10;99037.38;;;10.01;54.93
38780;BME280;29273;49.962;9.768;2024-03-25T08:04:36;99045.25;;;10.08;54.53
38780;BME280;29273;49.962;9.768;2024-03-25T08:07:02;99040.13;;;10.13;54.64
38780;BME280;29273;49.962;9.768;2024-03-25T08:09:28;99036.38;;;10.21;54.38
38780;BME280;29273;49.962;9.768;2024-03-25T08:11:54;99031.22;;;10.26;53.83
38780;BME280;29273;49.962;9.768;2024-03-25T08:14:19;99034.06;;;10.31;53.80
38780;BME280;29273;49.962;9.768;2024-03-25T08:16:45;99022.81;;;10.35;53.02
38780;BME280;29273;49.962;9.768;2024-03-25T08:19:10;99017.47;;;10.42;52.94
38780;BME280;29273;49.962;9.768;2024-03-25T08:21:36;99020.25;;;10.47;53.30
38780;BME280;29273;49.962;9.768;2024-03-25T08:24:01;99030.78;;;10.54;53.58
38780;BME280;29273;49.962;9.768;2024-03-25T08:26:27;99021.16;;;10.60;52.34
38780;BME280;29273;49.962;9.768;2024-03-25T08:28:52;99020.72;;;10.63;50.52
38780;BME280;29273;49.962;9.768;2024-03-25T08:31:17;99029.03;;;10.66;50.97
38780;BME280;29273;49.962;9.768;2024-03-25T08:33:43;99030.41;;;10.69;51.69
38780;BME280;29273;49.962;9.768;2024-03-25T08:36:09;99027.31;;;10.72;51.42
38780;BME280;29273;49.962;9.768;2024-03-25T08:38:34;99026.31;;;10.73;52.29
38780;BME280;29273;49.962;9.768;2024-03-25T08:41:00;99036.44;;;10.76;51.97
38780;BME280;29273;49.962;9.768;2024-03-25T08:43:26;99030.09;;;10.77;51.74
38780;BME280;29273;49.962;9.768;2024-03-25T08:45:51;99029.88;;;10.79;52.08
38780;BME280;29273;49.962;9.768;2024-03-25T08:48:16;99033.94;;;10.81;52.44
38780;BME280;29273;49.962;9.768;2024-03-25T08:50:42;99026.00;;;10.81;50.76
38780;BME280;29273;49.962;9.768;2024-03-25T08:53:08;99025.78;;;10.83;50.54
38780;BME280;29273;49.962;9.768;2024-03-25T08:55:33;99019.06;;;10.80;49.92
38780;BME280;29273;49.962;9.768;2024-03-25T08:57:59;99023.34;;;10.81;49.77
38780;BME280;29273;49.962;9.768;2024-03-25T09:00:26;99022.53;;;10.81;50.67
38780;BME280;29273;49.962;9.768;2024-03-25T09:02:55;99027.81;;;10.81;49.60
38780;BME280;29273;49.962;9.768;2024-03-25T09:05:21;99014.56;;;10.81;49.04
38780;BME280;29273;49.962;9.768;2024-03-25T09:07:50;99019.78;;;10.87;51.87
38780;BME280;29273;49.962;9.768;2024-03-25T09:10:20;99017.53;;;10.91;51.48
38780;BME280;29273;49.962;9.768;2024-03-25T09:13:04;99024.28;;;10.87;48.25
38780;BME280;29273;49.962;9.768;2024-03-25T09:15:29;99012.25;;;10.91;49.43
38780;BME280;29273;49.962;9.768;2024-03-25T09:17:55;99013.41;;;10.95;49.58
38780;BME280;29273;49.962;9.768;2024-03-25T09:20:21;99017.44;;;10.98;48.61
38780;BME280;29273;49.962;9.768;2024-03-25T09:22:47;99015.16;;;11.01;48.95
38780;BME280;29273;49.962;9.768;2024-03-25T09:25:17;99008.81;;;11.02;48.05
38780;BME280;29273;49.962;9.768;2024-03-25T09:27:47;99014.84;;;11.09;51.85
38780;BME280;29273;49.962;9.768;2024-03-25T09:30:13;99011.84;;;11.06;48.93
38780;BME280;29273;49.962;9.768;2024-03-25T09:32:39;99006.31;;;11.07;49.42
38780;BME280;29273;49.962;9.768;2024-03-25T09:35:06;99005.50;;;11.07;48.50
38780;BME280;29273;49.962;9.768;2024-03-25T09:37:32;99010.00;;;11.06;47.31
38780;BME280;29273;49.962;9.768;2024-03-25T09:39:58;99005.50;;;11.07;48.50
38780;BME280;29273;49.962;9.768;2024-03-25T09:42:28;98997.69;;;11.12;50.08
38780;BME280;29273;49.962;9.768;2024-03-25T09:44:56;99008.72;;;11.09;49.35
38780;BME280;29273;49.962;9.768;2024-03-25T09:47:22;99003.19;;;11.10;48.58
38780;BME280;29273;49.962;9.768;2024-03-25T09:49:49;98997.44;;;11.14;48.88
38780;BME280;29273;49.962;9.768;2024-03-25T09:52:17;98987.19;;;11.17;48.88
38780;BME280;29273;49.962;9.768;2024-03-25T09:54:44;98991.25;;;11.20;47.32
38780;BME280;29273;49.962;9.768;2024-03-25T09:57:09;98984.47;;;11.24;47.93
38780;BME280;29273;49.962;9.768;2024-03-25T09:59:37;98976.88;;;11.27;48.07
38780;BME280;29273;49.962;9.768;2024-03-25T10:02:03;98983.13;;;11.33;48.37
38780;BME280;29273;49.962;9.768;2024-03-25T10:04:29;98974.72;;;11.36;48.12
38780;BME280;29273;49.962;9.768;2024-03-25T10:06:55;98973.44;;;11.39;46.79
38780;BME280;29273;49.962;9.768;2024-03-25T10:09:21;98970.09;;;11.43;47.28
38780;BME280;29273;49.962;9.768;2024-03-25T10:11:50;98968.75;;;11.53;49.32
38780;BME280;29273;49.962;9.768;2024-03-25T10:14:16;98948.78;;;11.50;47.37
38780;BME280;29273;49.962;9.768;2024-03-25T10:16:42;98959.28;;;11.57;48.44
38780;BME280;29273;49.962;9.768;2024-03-25T10:19:09;98952.50;;;11.61;48.23
38780;BME280;29273;49.962;9.768;2024-03-25T10:21:35;98949.97;;;11.66;47.76
38780;BME280;29273;49.962;9.768;2024-03-25T10:24:00;98954.34;;;11.72;48.02
38780;BME280;29273;49.962;9.768;2024-03-25T10:26:30;98949.31;;;11.82;50.62
38780;BME280;29273;49.962;9.768;2024-03-25T10:29:09;98939.38;;;11.90;52.06
38780;BME280;29273;49.962;9.768;2024-03-25T10:31:36;98947.69;;;11.93;47.98
38780;BME280;29273;49.962;9.768;2024-03-25T10:34:02;98938.00;;;11.99;47.61
38780;BME280;29273;49.962;9.768;2024-03-25T10:36:27;98936.63;;;12.08;48.56
38780;BME280;29273;49.962;9.768;2024-03-25T10:38:55;98934.88;;;12.14;48.72
38780;BME280;29273;49.962;9.768;2024-03-25T10:41:21;98930.72;;;12.18;47.75
38780;BME280;29273;49.962;9.768;2024-03-25T10:43:48;98922.28;;;12.21;48.32
38780;BME280;29273;49.962;9.768;2024-03-25T10:46:20;98925.16;;;12.31;49.90
38780;BME280;29273;49.962;9.768;2024-03-25T10:49:13;98921.69;;;12.31;51.14
38780;BME280;29273;49.962;9.768;2024-03-25T10:51:41;98908.44;;;12.31;47.59
38780;BME280;29273;49.962;9.768;2024-03-25T10:54:09;98910.59;;;12.34;48.33
38780;BME280;29273;49.962;9.768;2024-03-25T10:56:36;98900.22;;;12.32;47.46
38780;BME280;29273;49.962;9.768;2024-03-25T10:59:02;98903.44;;;12.34;46.66
38780;BME280;29273;49.962;9.768;2024-03-25T11:01:29;98907.22;;;12.38;47.91
38780;BME280;29273;49.962;9.768;2024-03-25T11:03:56;98897.06;;;12.35;47.83
38780;BME280;29273;49.962;9.768;2024-03-25T11:06:22;98891.19;;;12.33;45.68
38780;BME280;29273;49.962;9.768;2024-03-25T11:08:56;98888.41;;;12.40;49.12
38780;BME280;29273;49.962;9.768;2024-03-25T11:11:21;98882.44;;;12.33;45.96
38780;BME280;29273;49.962;9.768;2024-03-25T11:13:47;98884.31;;;12.32;45.62
38780;BME280;29273;49.962;9.768;2024-03-25T11:16:12;98884.88;;;12.34;46.77
38780;BME280;29273;49.962;9.768;2024-03-25T11:18:38;98873.69;;;12.32;45.51
38780;BME280;29273;49.962;9.768;2024-03-25T11:21:07;98878.72;;;12.34;46.38
38780;BME280;29273;49.962;9.768;2024-03-25T11:23:46;98872.94;;;12.37;49.51
38780;BME280;29273;49.962;9.768;2024-03-25T11:26:27;98869.72;;;12.35;49.65
38780;BME280;29273;49.962;9.768;2024-03-25T11:28:53;98873.69;;;12.32;45.73
38780;BME280;29273;49.962;9.768;2024-03-25T11:31:25;98868.78;;;12.41;48.18
38780;BME280;29273;49.962;9.768;2024-03-25T11:33:51;98871.34;;;12.36;44.69
38780;BME280;29273;49.962;9.768;2024-03-25T11:36:16;98873.53;;;12.39;45.45
38780;BME280;29273;49.962;9.768;2024-03-25T11:39:01;98864.38;;;12.47;49.00
38780;BME280;29273;49.962;9.768;2024-03-25T11:41:31;98859.53;;;12.44;46.07
38780;BME280;29273;49.962;9.768;2024-03-25T11:43:57;98864.63;;;12.45;44.75
38780;BME280;29273;49.962;9.768;2024-03-25T11:46:25;98865.63;;;12.56;48.25
38780;BME280;29273;49.962;9.768;2024-03-25T11:48:52;98853.38;;;12.55;45.71
38780;BME280;29273;49.962;9.768;2024-03-25T11:51:19;98853.47;;;12.60;45.38
38780;BME280;29273;49.962;9.768;2024-03-25T11:53:44;98851.38;;;12.62;44.92
38780;BME280;29273;49.962;9.768;2024-03-25T11:56:13;98844.06;;;12.69;48.50
38780;BME280;29273;49.962;9.768;2024-03-25T11:58:39;98837.16;;;12.68;45.54
38780;BME280;29273;49.962;9.768;2024-03-25T12:01:05;98834.81;;;12.72;45.37
38780;BME280;29273;49.962;9.768;2024-03-25T12:03:33;98834.09;;;12.76;46.47
38780;BME280;29273;49.962;9.768;2024-03-25T12:05:59;98822.44;;;12.77;44.86
38780;BME280;29273;49.962;9.768;2024-03-25T12:08:24;98827.28;;;12.81;45.43
38780;BME280;29273;49.962;9.768;2024-03-25T12:10:51;98820.41;;;12.85;44.79
38780;BME280;29273;49.962;9.768;2024-03-25T12:13:35;98817.28;;;12.88;45.28
38780;BME280;29273;49.962;9.768;2024-03-25T12:16:06;98821.66;;;12.94;44.88
38780;BME280;29273;49.962;9.768;2024-03-25T12:18:34;98816.41;;;12.99;44.99
38780;BME280;29273;49.962;9.768;2024-03-25T12:21:01;98811.41;;;13.03;44.90
38780;BME280;29273;49.962;9.768;2024-03-25T12:23:32;98805.22;;;13.14;47.44
38780;BME280;29273;49.962;9.768;2024-03-25T12:26:01;98799.38;;;13.17;47.65
38780;BME280;29273;49.962;9.768;2024-03-25T12:28:27;98795.38;;;13.14;44.21
38780;BME280;29273;49.962;9.768;2024-03-25T12:30:55;98788.28;;;13.20;44.51
38780;BME280;29273;49.962;9.768;2024-03-25T12:33:24;98788.59;;;13.24;45.05
38780;BME280;29273;49.962;9.768;2024-03-25T12:35:50;98788.41;;;13.30;45.04
38780;BME280;29273;49.962;9.768;2024-03-25T12:38:27;98781.44;;;13.41;50.00
38780;BME280;29273;49.962;9.768;2024-03-25T12:40:53;98774.00;;;13.43;45.27
38780;BME280;29273;49.962;9.768;2024-03-25T12:43:19;98775.13;;;13.47;42.88
38780;BME280;29273;49.962;9.768;2024-03-25T12:45:45;98765.34;;;13.53;42.93
38780;BME280;29273;49.962;9.768;2024-03-25T12:48:11;98761.97;;;13.58;44.67
38780;BME280;29273;49.962;9.768;2024-03-25T12:50:37;98761.47;;;13.61;43.36
38780;BME280;29273;49.962;9.768;2024-03-25T12:53:03;98749.28;;;13.65;43.78
38780;BME280;29273;49.962;9.768;2024-03-25T12:55:29;98761.03;;;13.69;44.16
38780;BME280;29273;49.962;9.768;2024-03-25T12:57:55;98752.81;;;13.71;43.16
38780;BME280;29273;49.962;9.768;2024-03-25T13:00:20;98751.75;;;13.72;42.96
38780;BME280;29273;49.962;9.768;2024-03-25T13:02:46;98750.72;;;13.73;41.84
38780;BME280;29273;49.962;9.768;2024-03-25T13:05:11;98739.56;;;13.76;43.77